createdAt,value
2023-04-18T00:02:00.835Z,7
2023-04-18T00:04:06.757Z,6.7
2023-04-18T00:08:18.182Z,7.1
2023-04-18T00:10:23.941Z,6.6
2023-04-18T00:12:29.698Z,6.7
2023-04-18T00:14:38.561Z,6.9
2023-04-18T00:16:44.445Z,6.9
2023-04-18T00:18:50.121Z,6
2023-04-18T00:25:07.463Z,6.7
2023-04-18T00:35:40.081Z,7.3
2023-04-18T00:37:45.194Z,6.5
2023-04-18T00:39:50.983Z,6.4
2023-04-18T00:41:56.767Z,5.9
2023-04-18T00:44:05.598Z,6.6
2023-04-18T00:46:11.508Z,6.7
2023-04-18T00:48:17.192Z,5.9
2023-04-18T00:50:49.496Z,6.2
2023-04-18T00:52:54.504Z,5.4
2023-04-18T00:55:00.257Z,6.9
2023-04-18T00:57:09.093Z,7.5
2023-04-18T00:59:14.843Z,6.6
2023-04-18T01:01:20.640Z,6.1
2023-04-18T01:03:26.548Z,6.8
2023-04-18T01:07:37.918Z,6.7
2023-04-18T01:11:52.498Z,6.3
2023-04-18T01:16:04.094Z,5.7
2023-04-18T01:18:09.799Z,6.5
2023-04-18T01:20:15.570Z,6.3
2023-04-18T01:22:21.316Z,6.9
2023-04-18T01:24:27.074Z,5
2023-04-18T01:26:35.916Z,5.8
2023-04-18T01:28:41.659Z,6.7
2023-04-18T01:30:47.413Z,6.9
2023-04-18T01:34:58.923Z,6.7
2023-04-18T01:37:04.680Z,6.6
2023-04-18T01:39:10.435Z,6.8
2023-04-18T01:41:19.265Z,6.4
2023-04-18T01:43:25.035Z,6.2
2023-04-18T01:45:30.784Z,7.5
2023-04-18T01:46:35.290Z,6.1
2023-04-18T01:48:40.986Z,6
2023-04-18T01:50:46.723Z,6.4
2023-04-18T01:52:52.480Z,5.6
2023-04-18T01:55:01.308Z,6.6
2023-04-18T01:57:07.048Z,6.5
2023-04-18T01:59:12.811Z,7.2
2023-04-18T02:01:18.690Z,6.9
2023-04-18T02:03:24.652Z,6.6
2023-04-18T02:05:30.081Z,6.1
2023-04-18T02:07:35.811Z,7.8
2023-04-18T02:09:44.643Z,7.5
2023-04-18T02:11:50.408Z,5.9
2023-04-18T02:13:57.756Z,6.4
2023-04-18T02:16:03.483Z,5.9
2023-04-18T02:26:38.951Z,6.5
2023-04-18T02:28:41.011Z,8.4
2023-04-18T02:30:46.779Z,8.7
2023-04-18T02:32:52.558Z,7.6
2023-04-18T02:34:58.294Z,6.6
2023-04-18T02:37:04.007Z,8.2
2023-04-18T02:39:12.826Z,7.6
2023-04-18T02:41:18.611Z,8
2023-04-18T02:43:24.309Z,6.7
2023-04-18T02:44:28.723Z,6.9
2023-04-18T02:46:34.492Z,7.2
2023-04-18T02:48:40.199Z,7.2
2023-04-18T02:50:45.968Z,8.2
2023-04-18T02:55:00.547Z,8.2
2023-04-18T02:57:06.252Z,6.4
2023-04-18T02:59:12.030Z,6.8
2023-04-18T03:01:17.753Z,8
2023-04-18T03:03:23.518Z,6.9
2023-04-18T03:07:37.978Z,9.3
2023-04-18T03:09:43.732Z,7.2
2023-04-18T03:11:49.491Z,8.3
2023-04-18T03:13:55.201Z,8.1
2023-04-18T03:24:26.931Z,8.2
2023-04-18T03:26:32.691Z,7
2023-04-18T03:28:39.456Z,7.8
2023-04-18T03:30:45.202Z,8.7
2023-04-18T03:32:50.946Z,8.5
2023-04-18T03:34:56.691Z,8.7
2023-04-18T03:37:05.494Z,9.2
2023-04-18T03:41:16.979Z,8.6
2023-04-18T03:42:21.377Z,7.7
2023-04-18T03:44:27.129Z,8.7
2023-04-18T03:46:32.974Z,8.9
2023-04-18T03:48:38.620Z,7.1
2023-04-18T03:50:47.474Z,9.3
2023-04-18T03:52:53.211Z,8.1
2023-04-18T03:54:58.947Z,8.9
2023-04-18T03:59:10.433Z,10
2023-04-18T04:09:42.266Z,9
2023-04-18T04:11:48.000Z,8.2
2023-04-18T04:13:53.758Z,9.4
2023-04-18T04:18:05.276Z,8.3
2023-04-18T04:22:19.822Z,8.5
2023-04-18T04:26:31.354Z,9.2
2023-04-18T04:28:37.103Z,10.6
2023-04-18T04:30:42.851Z,9.2
2023-04-18T04:32:48.658Z,8.3
2023-04-18T04:39:08.954Z,10
2023-04-18T04:43:38.770Z,9.4
2023-04-18T04:47:53.362Z,11.3
2023-04-18T04:49:59.093Z,9.5
2023-04-18T04:58:22.069Z,7.9
2023-04-18T05:08:53.916Z,10
2023-04-18T05:13:05.926Z,10.4
2023-04-18T05:15:11.182Z,11.3
2023-04-18T05:17:20.005Z,9.8
2023-04-18T05:19:25.771Z,9.1
2023-04-18T05:21:31.500Z,10
2023-04-18T05:23:37.387Z,11.3
2023-04-18T05:25:43.046Z,9.9
2023-04-18T05:27:48.775Z,9.4
2023-04-18T05:29:54.548Z,8.6
2023-04-18T05:32:03.386Z,9.5
2023-04-18T05:34:09.088Z,10.3
2023-04-18T05:36:14.882Z,12.9
2023-04-18T05:39:25.050Z,10.4
2023-04-18T05:41:30.833Z,9.9
2023-04-18T05:43:36.573Z,9.4
2023-04-18T05:45:45.415Z,7.6
2023-04-18T05:47:51.228Z,9.9
2023-04-18T05:49:56.938Z,9.2
2023-04-18T05:52:02.722Z,9.3
2023-04-18T05:56:14.266Z,7.8
2023-04-18T05:58:20.032Z,8.8
2023-04-18T06:00:28.877Z,9.3
2023-04-18T06:02:34.788Z,9.1
2023-04-18T06:04:40.573Z,9.2
2023-04-18T06:08:51.961Z,9.4
2023-04-18T06:10:57.754Z,9.4
2023-04-18T06:13:03.494Z,9.2
2023-04-18T06:15:12.357Z,8.4
2023-04-18T06:17:18.137Z,9.2
2023-04-18T06:19:23.896Z,9.3
2023-04-18T06:21:29.744Z,6.9
2023-04-18T06:23:35.487Z,8.2
2023-04-18T06:25:41.292Z,6.7
2023-04-18T06:29:55.959Z,7.9
2023-04-18T06:34:07.565Z,7.9
2023-04-18T06:35:12.027Z,8.3
2023-04-18T06:37:17.850Z,7.7
2023-04-18T06:39:23.668Z,6.6
2023-04-18T06:41:29.505Z,6.6
2023-04-18T06:43:38.496Z,7.1
2023-04-18T06:45:44.462Z,8.6
2023-04-18T06:47:50.077Z,9.2
2023-04-18T06:49:55.838Z,8.8
2023-04-18T06:52:01.655Z,7.2
2023-04-18T07:10:57.099Z,5.9
2023-04-18T07:13:05.988Z,7.7
2023-04-18T07:15:11.825Z,6.5
2023-04-18T07:17:17.588Z,5.3
2023-04-18T07:19:23.413Z,6.8
2023-04-18T07:23:34.946Z,6.5
2023-04-18T07:27:49.447Z,6.3
2023-04-18T07:29:55.191Z,5.7
2023-04-18T07:32:00.991Z,6.3
2023-04-18T07:33:05.512Z,4.3
2023-04-18T07:43:37.290Z,4.8
2023-04-18T07:45:43.109Z,4.8
2023-04-18T07:47:48.901Z,3.9
2023-04-18T07:49:54.647Z,6.3
2023-04-18T07:52:00.430Z,5
2023-04-18T07:56:15.057Z,5
2023-04-18T07:58:20.818Z,5.7
2023-04-18T08:02:32.503Z,6.1
2023-04-18T08:04:38.340Z,4.3
2023-04-18T08:06:43.938Z,5.1
2023-04-18T08:08:49.766Z,5.2
2023-04-18T08:10:58.499Z,5
2023-04-18T08:13:04.273Z,5.4
2023-04-18T08:15:10.055Z,4.4
2023-04-18T08:17:17.420Z,6.3
2023-04-18T08:19:23.136Z,5.4
2023-04-18T08:21:28.863Z,5.8
2023-04-18T08:25:43.388Z,5.7
2023-04-18T08:32:26.437Z,5.4
2023-04-18T08:34:32.114Z,5.3
2023-04-18T08:36:37.862Z,6
2023-04-18T08:38:46.715Z,6.2
2023-04-18T08:40:52.439Z,6
2023-04-18T08:42:58.314Z,4.8
2023-04-18T08:45:04.046Z,6.8
2023-04-18T08:47:09.917Z,5.7
2023-04-18T08:49:15.844Z,5.2
2023-04-18T08:51:21.516Z,4.8
2023-04-18T08:53:30.416Z,5.6
2023-04-18T08:55:36.162Z,3.8
2023-04-18T08:57:41.891Z,4.1
2023-04-18T08:59:49.710Z,4.9
2023-04-18T09:01:53.475Z,3.5
2023-04-18T09:03:59.260Z,4.8
2023-04-18T09:14:30.924Z,4.6
2023-04-18T09:16:36.843Z,5
2023-04-18T09:18:42.474Z,5.1
2023-04-18T09:20:48.202Z,3.6
2023-04-18T09:22:56.938Z,3.8
2023-04-18T09:25:02.665Z,4.9
2023-04-18T09:27:08.431Z,5.1
2023-04-18T09:28:12.796Z,4.1
2023-04-18T09:32:24.384Z,3.6
2023-04-18T09:34:30.092Z,3.8
2023-04-18T09:36:38.877Z,3.8
2023-04-18T09:38:44.566Z,4.8
2023-04-18T09:40:50.330Z,4.9
2023-04-18T09:42:56.068Z,4.8
2023-04-18T09:47:07.639Z,5.2
2023-04-18T09:49:13.580Z,5.5
2023-04-18T09:51:22.140Z,6.6
2023-04-18T09:53:27.871Z,5
2023-04-18T09:57:39.432Z,4.5
2023-04-18T10:03:56.886Z,4.5
2023-04-18T10:06:05.471Z,5.2
2023-04-18T10:08:11.247Z,5.7
2023-04-18T10:10:17.058Z,5.5
2023-04-18T10:14:28.671Z,5.4
2023-04-18T10:16:35.651Z,5.7
2023-04-18T10:18:40.178Z,5.7
2023-04-18T10:20:53.465Z,7.5
2023-04-18T10:25:00.482Z,5.7
2023-04-18T10:26:04.869Z,5.7
2023-04-18T10:28:10.630Z,5.9
2023-04-18T10:30:16.406Z,6.6
2023-04-18T10:34:30.937Z,7
2023-04-18T10:36:36.716Z,4.7
2023-04-18T10:38:42.494Z,6.6
2023-04-18T10:40:48.286Z,7.7
2023-04-18T10:42:54.029Z,6.6
2023-04-18T10:44:59.814Z,7
2023-04-18T10:47:05.642Z,7.9
2023-04-18T10:49:14.580Z,6.8
2023-04-18T10:51:20.111Z,6.5
2023-04-18T10:53:25.925Z,6.7
2023-04-18T10:55:31.686Z,7.3
2023-04-18T10:57:37.480Z,8.2
2023-04-18T10:59:43.256Z,9
2023-04-18T11:01:49.021Z,7.1
2023-04-18T11:03:57.834Z,9.2
2023-04-18T11:06:03.600Z,8.7
2023-04-18T11:08:09.356Z,8.7
2023-04-18T11:10:15.175Z,7.6
2023-04-18T11:12:20.936Z,9.2
2023-04-18T11:14:26.722Z,7.5
2023-04-18T11:16:32.550Z,7.5
2023-04-18T11:18:41.252Z,5.7
2023-04-18T11:23:57.220Z,7.8
2023-04-18T11:26:02.979Z,7.4
2023-04-18T11:28:08.771Z,7.2
2023-04-18T11:30:14.586Z,7.5
2023-04-18T11:32:23.520Z,7.7
2023-04-18T11:34:29.095Z,7.3
2023-04-18T11:36:34.919Z,6.7
2023-04-18T11:38:40.693Z,6.2
2023-04-18T11:42:52.256Z,7.5
2023-04-18T11:44:58.034Z,5.1
2023-04-18T11:47:06.784Z,6.3
2023-04-18T11:49:12.589Z,6.9
2023-04-18T11:51:18.367Z,8.7
2023-04-18T11:53:24.146Z,7.5
2023-04-18T11:57:35.724Z,8.1
2023-04-18T11:59:41.528Z,7.8
2023-04-18T12:01:50.309Z,6.5
2023-04-18T12:03:56.312Z,7.8
2023-04-18T12:06:01.907Z,8.5
2023-04-18T12:10:13.436Z,8.1
2023-04-18T12:12:19.254Z,7.2
2023-04-18T12:16:33.858Z,7.8
2023-04-18T12:23:16.653Z,8.7
2023-04-18T12:29:36.970Z,9.8
2023-04-18T12:35:55.432Z,8.4
2023-04-18T12:42:11.717Z,8.8
2023-04-18T12:48:32.024Z,8.4
2023-04-18T12:52:43.598Z,8.4
2023-04-18T12:54:49.397Z,9.1
2023-04-18T12:56:55.180Z,8.1
2023-04-18T12:59:03.929Z,9.2
2023-04-18T13:01:09.750Z,8.6
2023-04-18T13:03:15.680Z,8.2
2023-04-18T13:05:21.297Z,8.1
2023-04-18T13:09:32.873Z,8.7
2023-04-18T13:11:38.682Z,9
2023-04-18T13:13:47.410Z,8.8
2023-04-18T13:19:03.428Z,8
2023-04-18T13:21:09.163Z,8.6
2023-04-18T13:23:14.944Z,8.2
2023-04-18T13:25:20.757Z,9.7
2023-04-18T13:27:29.474Z,10.2
2023-04-18T13:29:35.284Z,8.1
2023-04-18T13:33:46.861Z,8.2
2023-04-18T13:35:52.655Z,9
2023-04-18T13:37:58.469Z,7.9
2023-04-18T13:40:04.254Z,8.4
2023-04-18T13:42:15.402Z,8.3
2023-04-18T13:56:56.543Z,9.4
2023-04-18T13:59:02.420Z,8.7
2023-04-18T14:01:08.202Z,7.2
2023-04-18T14:07:25.567Z,7.8
2023-04-18T14:09:31.362Z,6.5
2023-04-18T14:11:40.103Z,8.4
2023-04-18T14:13:45.915Z,7.4
2023-04-18T14:15:51.759Z,7.2
2023-04-18T14:19:03.546Z,9.1
2023-04-18T14:21:09.268Z,7
2023-04-18T14:25:23.848Z,7.3
2023-04-18T14:48:30.489Z,7
2023-04-18T14:50:36.276Z,7
2023-04-18T14:52:42.086Z,7.1
2023-04-18T15:01:08.213Z,5.9
2023-04-18T15:09:34.381Z,7.1
2023-04-18T15:11:40.190Z,6.5
2023-04-18T15:14:50.398Z,7.2
2023-04-18T15:16:56.246Z,6.6
2023-04-18T15:19:01.961Z,7
2023-04-18T15:31:39.730Z,6.9
2023-04-18T15:50:34.898Z,5.7
2023-04-18T15:52:43.675Z,7.4
2023-04-18T15:54:49.456Z,8
2023-04-18T15:56:55.241Z,7.7
2023-04-18T15:59:01.038Z,6.9
2023-04-18T16:01:06.880Z,6.7
2023-04-18T16:05:18.414Z,5.7
2023-04-18T16:07:27.190Z,6.5
2023-04-18T16:09:32.974Z,6.7
2023-04-18T16:11:38.782Z,6.4
2023-04-18T16:14:10.098Z,5.4
2023-04-18T16:22:36.244Z,6.7
2023-04-18T16:24:42.303Z,5.5
2023-04-18T16:26:47.867Z,6
2023-04-18T16:28:53.649Z,6.3
2023-04-18T16:30:59.468Z,5.8
2023-04-18T16:33:05.338Z,6
2023-04-18T16:35:14.018Z,5.7
2023-04-18T16:39:25.609Z,7.2
2023-04-18T16:41:31.398Z,6.3
2023-04-18T16:49:57.554Z,6.1
2023-04-18T16:52:03.351Z,7.7
2023-04-18T16:54:09.161Z,6.3
2023-04-18T16:58:20.761Z,5.2
2023-04-18T17:00:26.506Z,5.9
2023-04-18T17:02:32.529Z,7
2023-04-18T17:04:41.160Z,5.9
2023-04-18T17:06:46.929Z,5.9
2023-04-18T17:08:52.710Z,5.9
2023-04-18T17:12:02.881Z,6.6
2023-04-18T17:16:14.497Z,4.5
2023-04-18T17:18:23.242Z,7.2
2023-04-18T17:20:29.027Z,5.3
2023-04-18T17:22:34.813Z,5.5
2023-04-18T17:24:40.634Z,5.3
2023-04-18T17:26:46.419Z,5.3
2023-04-18T17:28:52.231Z,4.7
2023-04-18T17:30:58.034Z,5.9
2023-04-18T17:33:06.820Z,6.7
2023-04-18T17:35:12.618Z,5.8
2023-04-18T17:37:18.399Z,4.4
2023-04-18T17:39:24.180Z,4.5
2023-04-18T17:41:29.993Z,3.7
2023-04-18T17:43:35.797Z,5.3
2023-04-18T17:45:41.669Z,5
2023-04-18T17:47:50.405Z,4.4
2023-04-18T17:49:56.123Z,3.9
2023-04-18T17:54:07.758Z,4.5
2023-04-18T17:56:13.545Z,3.8
2023-04-18T17:58:19.353Z,4
2023-04-18T18:00:25.138Z,4.3
2023-04-18T18:09:55.675Z,3.7
2023-04-18T18:14:07.281Z,3.1
2023-04-18T18:16:16.040Z,4.4
2023-04-18T18:20:27.596Z,4.3
2023-04-18T18:22:33.378Z,3.7
2023-04-18T18:24:39.174Z,3.9
2023-04-18T18:26:44.983Z,4
2023-04-18T18:28:50.729Z,4.3
2023-04-18T18:30:59.535Z,4.4
2023-04-18T18:35:11.031Z,4.2
2023-04-18T18:37:16.834Z,4.1
2023-04-18T18:49:54.457Z,4.6
2023-04-18T18:52:00.222Z,4.4
2023-04-18T18:54:06.033Z,4.1
2023-04-18T18:56:11.764Z,3.3
2023-04-18T18:58:17.547Z,5.5
2023-04-18T19:02:32.244Z,6.1
2023-04-18T19:04:37.949Z,4.4
2023-04-18T19:05:42.241Z,5.7
2023-04-18T19:07:48.007Z,4.2
2023-04-18T19:09:53.807Z,3.9
2023-04-18T19:11:59.553Z,5.6
2023-04-18T19:14:08.278Z,4.7
2023-04-18T19:26:42.939Z,6.2
2023-04-18T19:28:51.672Z,7.2
2023-04-18T19:30:57.434Z,6.3
2023-04-18T19:33:03.231Z,5.5
2023-04-18T19:35:08.947Z,5
2023-04-18T19:37:14.737Z,4.7
2023-04-18T19:39:20.502Z,6
2023-04-18T19:41:26.255Z,5
2023-04-18T19:43:34.997Z,5.5
2023-04-18T19:45:40.794Z,4.6
2023-04-18T19:47:46.578Z,6.4
2023-04-18T19:49:52.327Z,5.2
2023-04-18T19:51:58.092Z,4.8
2023-04-18T19:54:03.851Z,5.8
2023-04-18T19:56:09.627Z,4.5
2023-04-18T19:58:18.371Z,5.1
2023-04-18T20:00:24.120Z,4.6
2023-04-18T20:02:30.264Z,4.8
2023-04-18T20:05:01.365Z,4.8
2023-04-18T20:07:07.004Z,5.5
2023-04-18T20:09:13.027Z,4.3
2023-04-18T20:11:21.534Z,4.3
2023-04-18T20:17:38.932Z,5.1
2023-04-18T20:19:44.537Z,4.8
2023-04-18T20:21:51.897Z,5.4
2023-04-18T20:32:23.674Z,5.6
2023-04-18T20:34:29.372Z,5.7
2023-04-18T20:36:35.114Z,4.6
2023-04-18T20:51:18.382Z,4.8
2023-04-18T20:53:24.088Z,5.8
2023-04-18T20:55:32.830Z,4.7
2023-04-18T20:57:38.590Z,4.8
2023-04-18T21:00:48.915Z,6.3
2023-04-18T21:02:54.874Z,5.3
2023-04-18T21:05:00.594Z,5.8
2023-04-18T21:07:06.441Z,6.1
2023-04-18T21:09:15.444Z,6.1
2023-04-18T21:11:21.096Z,5.6
2023-04-18T21:13:26.937Z,5
2023-04-18T21:15:32.675Z,6
2023-04-18T21:17:38.575Z,6.1
2023-04-18T21:19:44.396Z,7.1
2023-04-18T21:21:50.111Z,5.6
2023-04-18T21:23:59.026Z,5.3
2023-04-18T21:26:04.851Z,4.5
2023-04-18T21:28:10.710Z,6.7
2023-04-18T21:32:22.416Z,6
2023-04-18T21:40:48.699Z,6
2023-04-18T21:45:00.376Z,6.4
2023-04-18T21:49:12.029Z,6.1
2023-04-18T21:57:38.434Z,6.3
2023-04-18T21:58:42.902Z,5.9
2023-04-18T22:02:54.688Z,5.5
2023-04-18T22:05:00.416Z,6.1
2023-04-18T22:07:09.294Z,6.6
2023-04-18T22:09:15.120Z,5.8
2023-04-18T22:19:44.178Z,6.4
2023-04-18T22:21:53.087Z,4.9
2023-04-18T22:32:22.251Z,6
2023-04-18T22:38:42.748Z,5.7
2023-04-18T22:40:48.556Z,5.3
2023-04-18T22:42:54.423Z,5.7
2023-04-18T22:47:06.021Z,6.4
2023-04-18T22:49:11.878Z,6.3
2023-04-18T22:56:36.829Z,6.7
2023-04-18T22:58:42.642Z,6.4
2023-04-18T23:00:48.487Z,5.7
2023-04-18T23:05:03.235Z,7.2
2023-04-18T23:09:14.831Z,6.2
2023-04-18T23:11:20.644Z,5.5
2023-04-18T23:21:52.857Z,6.9
2023-04-18T23:23:58.664Z,6.9
2023-04-18T23:26:04.448Z,6.8
2023-04-18T23:28:10.284Z,6
2023-04-18T23:30:16.121Z,7.5
2023-04-18T23:38:42.378Z,8.2
2023-04-18T23:42:54.026Z,7.3
2023-04-18T23:47:05.660Z,7.7
2023-04-18T23:49:14.529Z,7.1
2023-04-18T23:55:52.258Z,6
